Time;durP1;ratioP1;P1;durP2;ratioP2;P2;SDS_P1;SDS_P2;PMS_P1;PMS_P2;Temp;Humidity;BMP_temperature;BMP_pressure;BME280_temperature;BME280_humidity;BME280_pressure;Samples;Min_cycle;Max_cycle;Signal;HPM_P1;HPM_P2
2023/03/27 00:00:09;;;;;;;;;;;;;;;;;;1033947;28;1816;-50
2023/03/27 00:01:00;;;;;;;;;;;;;;;;;;1031729;28;4053;-49
2023/03/27 00:01:30;;;;;;;;;;;;;;;;;;1031906;28;3114;-50
2023/03/27 00:02:00;;;;;;;;;;;;;;;;;;1032254;28;3996;-50
2023/03/27 00:02:31;;;;;;;;;;;;;;;;;;1033059;28;2882;-51
2023/03/27 00:03:01;;;;;;;;;;;;;;;;;;1034610;28;3775;-51
2023/03/27 00:03:32;;;;;;;;;;;;;;;;;;1031945;28;3923;-52
2023/03/27 00:04:02;;;;;;;;;;;;;;;;;;1034318;28;3085;-51
2023/03/27 00:04:33;;;;;;;;;;;;;;;;;;1034320;28;3800;-50
2023/03/27 00:05:04;;;;;;;;;;;;;;;;;;1035368;28;1723;-49
2023/03/27 00:05:34;;;;;;;;;;;;;;;;;;1033551;28;3816;-50
2023/03/27 00:06:08;;;;;;;;;;;;;;;;;;1034823;28;2543;-52
2023/03/27 00:06:39;;;;;;;;;;;;;;;;;;1033833;28;3944;-51
2023/03/27 00:07:09;;;;;;;;;;;;;;;;;;1034490;28;1572;-51
2023/03/27 00:07:40;;;;;;;;;;;;;;;;;;1033281;28;4025;-53
2023/03/27 00:08:11;;;;;;;;;;;;;;;;;;1032279;28;2979;-51
2023/03/27 00:08:45;;;;;;;;;;;;;;;;;;1034594;28;4003;-50
2023/03/27 00:09:16;;;;;;;;;;;;;;;;;;1038214;28;1653;-49
2023/03/27 00:09:46;;;;;;;;;;;;;;;;;;1037927;28;3878;-51
2023/03/27 00:10:16;;;;;;;;;;;;;;;;;;1038050;28;3046;-51
2023/03/27 00:10:47;;;;;;;;;;;;;;;;;;1038447;28;4063;-47
2023/03/27 00:11:20;;;;;;;;;;;;;;;;;;1038237;28;2237;-51
2023/03/27 00:11:51;;;;;;;;;;;;;;;;;;1038711;28;3967;-52
2023/03/27 00:12:21;;;;;;;;;;;;;;;;;;1037006;28;4894;-50
2023/03/27 00:12:51;;;;;;;;;;;;;;;;;;1037085;28;3895;-55
2023/03/27 00:13:22;;;;;;;;;;;;;;;;;;1039029;28;1762;-50
2023/03/27 00:13:53;;;;;;;;;;;;;;;;;;1035104;28;4045;-50
2023/03/27 00:14:23;;;;;;;;;;;;;;;;;;1038791;28;1494;-53
2023/03/27 00:14:54;;;;;;;;;;;;;;;;;;1037785;28;3892;-52
2023/03/27 00:15:24;;;;;;;;;;;;;;;;;;1038394;28;1800;-49
2023/03/27 00:15:55;;;;;;;;;;;;;;;;;;1037305;28;3733;-49
2023/03/27 00:16:26;;;;;;;;;;;;;;;;;;1038129;28;3217;-49
2023/03/27 00:16:58;;;;;;;;;;;;;;;;;;1035901;28;4727;-52
2023/03/27 00:17:29;;;;;;;;;;;;;;;;;;1039436;28;1474;-50
2023/03/27 00:18:02;;;;;;;;;;;;;;;;;;1036768;28;3851;-48
2023/03/27 00:18:33;;;;;;;;;;;;;;;;;;1036112;28;4039;-51
2023/03/27 00:19:03;;;;;;;;;;;;;;;;;;1036988;28;2299;-50
2023/03/27 00:19:35;;;;;;;;;;;;;;;;;;1036602;28;4099;-50
2023/03/27 00:20:05;;;;;;;;;;;;;;;;;;1036874;28;2922;-49
2023/03/27 00:20:36;;;;;;;;;;;;;;;;;;1037338;28;4075;-49
2023/03/27 00:21:06;;;;;;;;;;;;;;;;;;1039652;28;2884;-49
2023/03/27 00:21:36;;;;;;;;;;;;;;;;;;1038098;28;4177;-50
2023/03/27 00:22:08;;;;;;;;;;;;;;;;;;1038852;28;1861;-52
2023/03/27 00:22:39;;;;;;;;;;;;;;;;;;1036616;28;4090;-54
2023/03/27 00:23:10;;;;;;;;;;;;;;;;;;1039309;28;1677;-50
2023/03/27 00:23:41;;;;;;;;;;;;;;;;;;1038041;28;3826;-51
2023/03/27 00:24:11;;;;;;;;;;;;;;;;;;1037557;28;3069;-48
2023/03/27 00:24:41;;;;;;;;;;;;;;;;;;1038742;28;3820;-51
2023/03/27 00:25:12;;;;;;;;;;;;;;;;;;1039088;28;1438;-49
2023/03/27 00:25:42;;;;;;;;;;;;;;;;;;1038280;28;4124;-50
2023/03/27 00:26:13;;;;;;;;;;;;;;;;;;1037404;28;2936;-51
2023/03/27 00:26:43;;;;;;;;;;;;;;;;;;1038700;28;3883;-50
2023/03/27 00:27:13;;;;;;;;;;;;;;;;;;1036971;28;3085;-50
2023/03/27 00:27:43;;;;;;;;;;;;;;;;;;1037543;28;3776;-50
2023/03/27 00:28:15;;;;;;;;;;;;;;;;;;1040228;28;2821;-49
2023/03/27 00:28:46;;;;;;;;;;;;;;;;;;1038400;28;3816;-51
2023/03/27 00:29:17;;;;;;;;;;;;;;;;;;1034730;28;3064;-48
2023/03/27 00:29:47;;;;;;;;;;;;;;;;;;1037572;28;4054;-50
2023/03/27 00:30:18;;;;;;;;;;;;;;;;;;1038863;28;2790;-50
2023/03/27 00:30:48;;;;;;;;;;;;;;;;;;1038250;28;4131;-52
2023/03/27 00:31:18;;;;;;;;;;;;;;;;;;1038490;28;2489;-50
2023/03/27 00:31:48;;;;;;;;;;;;;;;;;;1036630;28;3893;-48
2023/03/27 00:32:19;;;;;;;;;;;;;;;;;;1037286;28;1861;-54
2023/03/27 00:32:50;;;;;;;;;;;;;;;;;;1037356;28;4072;-50
2023/03/27 00:33:20;;;;;;;;;;;;;;;;;;1039730;28;1764;-48
2023/03/27 00:33:50;;;;;;;;;;;;;;;;;;1036382;28;3909;-49
2023/03/27 00:34:21;;;;;;;;;;;;;;;;;;1038872;28;3405;-49
2023/03/27 00:34:51;;;;;;;;;;;;;;;;;;1038176;28;4101;-49
2023/03/27 00:35:22;;;;;;;;;;;;;;;;;;1036790;28;3588;-51
2023/03/27 00:35:53;;;;;;;;;;;;;;;;;;1036378;28;4054;-49
2023/03/27 00:36:23;;;;;;;;;;;;;;;;;;1038418;28;2875;-50
2023/03/27 00:36:53;;;;;;;;;;;;;;;;;;1035999;28;3892;-50
2023/03/27 00:37:24;;;;;;;;;;;;;;;;;;1032626;28;3153;-49
2023/03/27 00:37:56;;;;;;;;;;;;;;;;;;1031850;28;3916;-51
2023/03/27 00:38:26;;;;;;;;;;;;;;;;;;1033374;28;2944;-53
2023/03/27 00:38:57;;;;;;;;;;;;;;;;;;1036995;28;3946;-48
2023/03/27 00:39:27;;;;;;;;;;;;;;;;;;1039042;28;2937;-49
2023/03/27 00:39:58;;;;;;;;;;;;;;;;;;1037857;28;4136;-50
2023/03/27 00:40:30;;;;;;;;;;;;;;;;;;1036800;28;2668;-51
2023/03/27 00:41:01;;;;;;;;;;;;;;;;;;1036303;28;4179;-50
2023/03/27 00:41:32;;;;;;;;;;;;;;;;;;1035241;28;4027;-52
2023/03/27 00:42:03;;;;;;;;;;;;;;;;;;1039689;28;1776;-51
2023/03/27 00:42:33;;;;;;;;;;;;;;;;;;1035828;28;4028;-52
2023/03/27 00:43:25;;;;;;;;;;;;;;;;;;1034843;28;2853;-52
2023/03/27 00:43:57;;;;;;;;;;;;;;;;;;1032910;28;4044;-51
2023/03/27 00:44:33;;;;;;;;;;;;;;;;;;1038972;28;3248;-50
2023/03/27 00:45:03;;;;;;;;;;;;;;;;;;1041037;28;3858;-51
2023/03/27 00:45:34;;;;;;;;;;;;;;;;;;1040977;28;3907;-48
2023/03/27 00:46:20;;;;;;;;;;;;;;;;;;1041658;28;1803;-52
2023/03/27 00:46:51;;;;;;;;;;;;;;;;;;1036745;28;3871;-49
2023/03/27 00:47:32;;;;;;;;;;;;;;;;;;1035946;28;2938;-49
2023/03/27 00:48:05;;;;;;;;;;;;;;;;;;1030383;28;4015;-51
2023/03/27 00:48:36;;;;;;;;;;;;;;;;;;1031431;28;4199;-48
2023/03/27 00:49:08;;;;;;;;;;;;;;;;;;1031983;28;2808;-51
2023/03/27 00:49:38;;;;;;;;;;;;;;;;;;1032617;28;3852;-51
2023/03/27 00:50:10;;;;;;;;;;;;;;;;;;1033654;28;2899;-52
2023/03/27 00:50:43;;;;;;;;;;;;;;;;;;1033513;28;3896;-49
2023/03/27 00:51:13;;;;;;;;;;;;;;;;;;1029029;28;2614;-49
2023/03/27 00:51:45;;;;;;;;;;;;;;;;;;1027768;28;4224;-49
2023/03/27 00:52:17;;;;;;;;;;;;;;;;;;1031305;28;2046;-48
2023/03/27 00:52:50;;;;;;;;;;;;;;;;;;1034896;28;4121;-51
2023/03/27 00:53:23;;;;;;;;;;;;;;;;;;1036835;28;3021;-51
2023/03/27 00:53:54;;;;;;;;;;;;;;;;;;1034946;28;4094;-48
2023/03/27 00:54:28;;;;;;;;;;;;;;;;;;1034775;28;3182;-53
2023/03/27 00:55:01;;;;;;;;;;;;;;;;;;1031180;28;4094;-51
2023/03/27 00:55:35;;;;;;;;;;;;;;;;;;1034878;28;4005;-52
2023/03/27 00:56:06;;;;;;;;;;;;;;;;;;1037929;28;1993;-52
2023/03/27 00:56:37;;;;;;;;;;;;;;;;;;1036250;28;4401;-50
2023/03/27 00:57:10;;;;;;;;;;;;;;;;;;1036977;28;2993;-51
2023/03/27 00:57:41;;;;;;;;;;;;;;;;;;1039351;28;4251;-51
2023/03/27 00:58:15;;;;;;;;;;;;;;;;;;1039224;28;1793;-52
2023/03/27 00:58:47;;;;;;;;;;;;;;;;;;1033166;28;3886;-53
2023/03/27 00:59:20;;;;;;;;;;;;;;;;;;1035078;28;2750;-50
2023/03/27 00:59:51;;;;;;;;;;;;;;;;;;1038765;28;3886;-54
2023/03/27 01:00:22;;;;;;;;;;;;;;;;;;1035205;28;2842;-50
2023/03/27 01:00:53;;;;;;;;;;;;;;;;;;1038437;28;3760;-53
2023/03/27 01:01:25;;;;;;;;;;;;;;;;;;1039180;28;1834;-50
2023/03/27 01:01:57;;;;;;;;;;;;;;;;;;1037339;28;3979;-52
2023/03/27 01:02:27;;;;;;;;;;;;;;;;;;1037105;28;2489;-50
2023/03/27 01:02:59;;;;;;;;;;;;;;;;;;1035891;28;3939;-52
2023/03/27 01:03:31;;;;;;;;;;;;;;;;;;1037814;28;3080;-51
2023/03/27 01:04:03;;;;;;;;;;;;;;;;;;1036439;28;4011;-51
2023/03/27 01:04:34;;;;;;;;;;;;;;;;;;1037452;28;3989;-51
2023/03/27 01:05:06;;;;;;;;;;;;;;;;;;1035610;28;2754;-49
2023/03/27 01:05:36;;;;;;;;;;;;;;;;;;1039908;28;3974;-49
2023/03/27 01:06:07;;;;;;;;;;;;;;;;;;1035424;28;2704;-50
2023/03/27 01:06:38;;;;;;;;;;;;;;;;;;1038956;28;4075;-51
2023/03/27 01:07:10;;;;;;;;;;;;;;;;;;1038221;28;4565;-51
2023/03/27 01:07:41;;;;;;;;;;;;;;;;;;1036131;28;3949;-48
2023/03/27 01:08:11;;;;;;;;;;;;;;;;;;1034040;28;3139;-50
2023/03/27 01:08:42;;;;;;;;;;;;;;;;;;1037651;28;3843;-53
2023/03/27 01:09:13;;;;;;;;;;;;;;;;;;1038945;28;2224;-50
2023/03/27 01:09:44;;;;;;;;;;;;;;;;;;1037006;28;3982;-51
2023/03/27 01:10:15;;;;;;;;;;;;;;;;;;1036829;28;3777;-52
2023/03/27 01:10:51;;;;;;;;;;;;;;;;;;1034831;28;4149;-52
2023/03/27 01:11:28;;;;;;;;;;;;;;;;;;1035868;28;3094;-53
2023/03/27 01:12:18;;;;;;;;;;;;;;;;;;1039190;28;3807;-50
2023/03/27 01:13:11;;;;;;;;;;;;;;;;;;1037057;28;4105;-52
2023/03/27 01:13:41;;;;;;;;;;;;;;;;;;1036710;28;4174;-53
2023/03/27 01:14:28;;;;;;;;;;;;;;;;;;1038655;28;3281;-51
2023/03/27 01:14:59;;;;;;;;;;;;;;;;;;1038405;28;3730;-49
2023/03/27 01:15:32;;;;;;;;;;;;;;;;;;1037981;28;3169;-50
2023/03/27 01:16:08;;;;;;;;;;;;;;;;;;1035822;28;3951;-50
2023/03/27 01:16:45;;;;;;;;;;;;;;;;;;1038895;28;3891;-49
2023/03/27 01:17:16;;;;;;;;;;;;;;;;;;1038681;28;1939;-50
2023/03/27 01:17:49;;;;;;;;;;;;;;;;;;1039112;28;3969;-50
2023/03/27 01:18:50;;;;;;;;;;;;;;;;;;1036379;28;2726;-50
2023/03/27 01:19:40;;;;;;;;;;;;;;;;;;1025132;28;3875;-50
2023/03/27 01:20:16;;;;;;;;;;;;;;;;;;1021753;29;3785;-54
2023/03/27 01:20:47;;;;;;;;;;;;;;;;;;1022523;28;4122;-50
2023/03/27 01:21:36;;;;;;;;;;;;;;;;;;1032899;28;3270;-52
2023/03/27 01:22:24;;;;;;;;;;;;;;;;;;1038075;28;3990;-51
2023/03/27 01:22:55;;;;;;;;;;;;;;;;;;1038936;28;4066;-54
2023/03/27 01:23:25;;;;;;;;;;;;;;;;;;1037739;28;3128;-51
2023/03/27 01:24:11;;;;;;;;;;;;;;;;;;1038318;28;4066;-48
2023/03/27 01:24:41;;;;;;;;;;;;;;;;;;1039596;28;4073;-51
2023/03/27 01:25:31;;;;;;;;;;;;;;;;;;1039297;28;1647;-52
2023/03/27 01:26:20;;;;;;;;;;;;;;;;;;1036125;28;3683;-54
2023/03/27 01:26:57;;;;;;;;;;;;;;;;;;1036671;28;3952;-52
2023/03/27 01:27:40;;;;;;;;;;;;;;;;;;1037955;28;1666;-52
2023/03/27 01:28:15;;;;;;;;;;;;;;;;;;1036355;28;3832;-50
2023/03/27 01:28:45;;;;;;;;;;;;;;;;;;1037015;28;4491;-50
2023/03/27 01:29:20;;;;;;;;;;;;;;;;;;1038123;28;1778;-51
2023/03/27 01:29:56;;;;;;;;;;;;;;;;;;1038683;28;4283;-52
2023/03/27 01:30:32;;;;;;;;;;;;;;;;;;1036710;28;2668;-53
2023/03/27 01:31:12;;;;;;;;;;;;;;;;;;1037354;28;3880;-51
2023/03/27 01:32:01;;;;;;;;;;;;;;;;;;1037018;28;3978;-52
2023/03/27 01:32:34;;;;;;;;;;;;;;;;;;1037550;28;2421;-49
2023/03/27 01:33:04;;;;;;;;;;;;;;;;;;1037347;28;3809;-53
2023/03/27 01:33:55;;;;;;;;;;;;;;;;;;1035840;28;3815;-51
2023/03/27 01:34:45;;;;;;;;;;;;;;;;;;1037612;28;1983;-53
2023/03/27 01:35:21;;;;;;;;;;;;;;;;;;1037100;28;3880;-53
2023/03/27 01:36:13;;;;;;;;;;;;;;;;;;1036372;28;4018;-53
2023/03/27 01:37:03;;;;;;;;;;;;;;;;;;1037915;28;4054;-52
2023/03/27 01:37:46;;;;;;;;;;;;;;;;;;1035645;28;4113;-50
2023/03/27 01:38:19;;;;;;;;;;;;;;;;;;1037002;28;2845;-50
2023/03/27 01:39:17;;;;;;;;;;;;;;;;;;1036871;28;4083;-51
2023/03/27 01:39:51;;;;;;;;;;;;;;;;;;1037620;28;3803;-52
2023/03/27 01:40:25;;;;;;;;;;;;;;;;;;1035984;28;3852;-51
2023/03/27 01:41:20;;;;;;;;;;;;;;;;;;1037018;28;3904;-49
2023/03/27 01:42:00;;;;;;;;;;;;;;;;;;1037127;28;3898;-51
2023/03/27 01:42:31;;;;;;;;;;;;;;;;;;1039232;28;1598;-50
2023/03/27 01:43:13;;;;;;;;;;;;;;;;;;1037728;28;3873;-51
2023/03/27 01:43:56;;;;;;;;;;;;;;;;;;1035181;28;4092;-54
2023/03/27 01:44:37;;;;;;;;;;;;;;;;;;1037026;28;2742;-49
2023/03/27 01:45:11;;;;;;;;;;;;;;;;;;1036103;28;3823;-49
2023/03/27 01:45:45;;;;;;;;;;;;;;;;;;1036422;28;4117;-50
2023/03/27 01:46:19;;;;;;;;;;;;;;;;;;1038693;28;1827;-50
2023/03/27 01:46:52;;;;;;;;;;;;;;;;;;1037151;28;4112;-51
2023/03/27 01:47:29;;;;;;;;;;;;;;;;;;1037141;28;1980;-51
2023/03/27 01:47:59;;;;;;;;;;;;;;;;;;1037369;28;3816;-53
2023/03/27 01:48:35;;;;;;;;;;;;;;;;;;1037490;28;3178;-51
2023/03/27 01:49:38;;;;;;;;;;;;;;;;;;1037983;28;4249;-51
2023/03/27 01:50:13;;;;;;;;;;;;;;;;;;1037481;28;3839;-53
2023/03/27 01:50:46;;;;;;;;;;;;;;;;;;1038371;28;3979;-51
2023/03/27 01:51:26;;;;;;;;;;;;;;;;;;1037701;28;1792;-53
2023/03/27 01:52:05;;;;;;;;;;;;;;;;;;1037200;28;3931;-50
2023/03/27 01:52:37;;;;;;;;;;;;;;;;;;1038344;28;4145;-49
2023/03/27 01:53:10;;;;;;;;;;;;;;;;;;1038362;28;1864;-49
2023/03/27 01:53:52;;;;;;;;;;;;;;;;;;1034266;28;4183;-50
2023/03/27 01:54:34;;;;;;;;;;;;;;;;;;1037478;28;1809;-49
2023/03/27 01:55:08;;;;;;;;;;;;;;;;;;1035190;28;3830;-51
2023/03/27 01:55:42;;;;;;;;;;;;;;;;;;1037677;28;4050;-48
2023/03/27 01:56:17;;;;;;;;;;;;;;;;;;1035866;28;2746;-55
2023/03/27 01:56:52;;;;;;;;;;;;;;;;;;1035364;28;3983;-52
2023/03/27 01:57:24;;;;;;;;;;;;;;;;;;1038078;28;1803;-52
2023/03/27 01:58:15;;;;;;;;;;;;;;;;;;1036419;28;4015;-52
2023/03/27 01:58:48;;;;;;;;;;;;;;;;;;1038298;28;4312;-52
2023/03/27 01:59:19;;;;;;;;;;;;;;;;;;1038665;28;1761;-50
2023/03/27 02:00:09;;;;;;;;;;;;;;;;;;1036039;28;5010;-53
2023/03/27 02:00:42;;;;;;;;;;;;;;;;;;1037401;28;3885;-51
2023/03/27 02:01:22;;;;;;;;;;;;;;;;;;1039058;28;1742;-50
2023/03/27 02:02:05;;;;;;;;;;;;;;;;;;1036639;28;3981;-50
2023/03/27 02:02:37;;;;;;;;;;;;;;;;;;1036486;28;5092;-51
2023/03/27 02:03:12;;;;;;;;;;;;;;;;;;1037932;28;3044;-51
2023/03/27 02:03:43;;;;;;;;;;;;;;;;;;1036376;28;4084;-51
2023/03/27 02:04:16;;;;;;;;;;;;;;;;;;1039037;28;1915;-54
2023/03/27 02:04:49;;;;;;;;;;;;;;;;;;1037305;28;4270;-52
2023/03/27 02:05:26;;;;;;;;;;;;;;;;;;1037270;28;2913;-53
2023/03/27 02:06:03;;;;;;;;;;;;;;;;;;1037362;28;3980;-51
2023/03/27 02:06:36;;;;;;;;;;;;;;;;;;1038774;28;4527;-48
2023/03/27 02:07:09;;;;;;;;;;;;;;;;;;1038647;28;1798;-52
2023/03/27 02:07:43;;;;;;;;;;;;;;;;;;1036650;28;3871;-52
2023/03/27 02:08:16;;;;;;;;;;;;;;;;;;1034240;28;2301;-49
2023/03/27 02:08:56;;;;;;;;;;;;;;;;;;1033582;28;3933;-54
2023/03/27 02:09:30;;;;;;;;;;;;;;;;;;1032258;28;2968;-52
2023/03/27 02:10:03;;;;;;;;;;;;;;;;;;1034367;28;3856;-51
2023/03/27 02:10:36;;;;;;;;;;;;;;;;;;1035774;28;3897;-53
2023/03/27 02:11:06;;;;;;;;;;;;;;;;;;1034478;28;3888;-51
2023/03/27 02:11:40;;;;;;;;;;;;;;;;;;1035194;28;3907;-51
2023/03/27 02:12:15;;;;;;;;;;;;;;;;;;1036646;28;2237;-51
2023/03/27 02:12:48;;;;;;;;;;;;;;;;;;1035925;28;4078;-50
2023/03/27 02:13:23;;;;;;;;;;;;;;;;;;1036350;28;2940;-51
2023/03/27 02:13:56;;;;;;;;;;;;;;;;;;1035656;28;3927;-49
2023/03/27 02:14:34;;;;;;;;;;;;;;;;;;1037921;28;2890;-50
2023/03/27 02:15:08;;;;;;;;;;;;;;;;;;1036798;28;3904;-50
2023/03/27 02:15:39;;;;;;;;;;;;;;;;;;1034408;28;3919;-52
2023/03/27 02:16:13;;;;;;;;;;;;;;;;;;1036045;28;3003;-50
2023/03/27 02:16:46;;;;;;;;;;;;;;;;;;1037026;28;3895;-51
2023/03/27 02:17:18;;;;;;;;;;;;;;;;;;1035558;28;3172;-51
2023/03/27 02:17:55;;;;;;;;;;;;;;;;;;1037884;28;4175;-51
2023/03/27 02:18:33;;;;;;;;;;;;;;;;;;1038311;28;1748;-51
2023/03/27 02:19:09;;;;;;;;;;;;;;;;;;1035117;28;3978;-53
2023/03/27 02:19:46;;;;;;;;;;;;;;;;;;1036710;28;3878;-52
2023/03/27 02:20:16;;;;;;;;;;;;;;;;;;1035377;28;2858;-51
2023/03/27 02:20:47;;;;;;;;;;;;;;;;;;1037253;28;3910;-51
2023/03/27 02:21:17;;;;;;;;;;;;;;;;;;1037489;28;2723;-50
2023/03/27 02:21:48;;;;;;;;;;;;;;;;;;1038630;28;4050;-49
2023/03/27 02:22:19;;;;;;;;;;;;;;;;;;1037780;28;2593;-49
2023/03/27 02:22:49;;;;;;;;;;;;;;;;;;1037532;28;3835;-51
2023/03/27 02:23:21;;;;;;;;;;;;;;;;;;1037655;28;3351;-52
2023/03/27 02:23:52;;;;;;;;;;;;;;;;;;1035946;28;4048;-50
2023/03/27 02:24:23;;;;;;;;;;;;;;;;;;1037780;28;2819;-51
2023/03/27 02:24:53;;;;;;;;;;;;;;;;;;1038821;28;3804;-50
2023/03/27 02:25:34;;;;;;;;;;;;;;;;;;1038517;28;2451;-50
2023/03/27 02:26:04;;;;;;;;;;;;;;;;;;1036481;28;3899;-54
2023/03/27 02:26:35;;;;;;;;;;;;;;;;;;1035011;28;4004;-49
2023/03/27 02:27:22;;;;;;;;;;;;;;;;;;1037495;28;2893;-49
2023/03/27 02:28:13;;;;;;;;;;;;;;;;;;1036377;28;3857;-50
2023/03/27 02:28:43;;;;;;;;;;;;;;;;;;1034394;28;4045;-50
2023/03/27 02:29:13;;;;;;;;;;;;;;;;;;1035137;28;3131;-50
2023/03/27 02:29:55;;;;;;;;;;;;;;;;;;1037502;28;3823;-51
2023/03/27 02:30:33;;;;;;;;;;;;;;;;;;1036481;28;3185;-52
2023/03/27 02:31:28;;;;;;;;;;;;;;;;;;1036064;28;3669;-53
2023/03/27 02:32:23;;;;;;;;;;;;;;;;;;1036917;28;3959;-50
2023/03/27 02:32:54;;;;;;;;;;;;;;;;;;1037169;28;3908;-50
2023/03/27 02:33:36;;;;;;;;;;;;;;;;;;1038120;28;2782;-49
2023/03/27 02:34:22;;;;;;;;;;;;;;;;;;1036837;28;3949;-50
2023/03/27 02:35:00;;;;;;;;;;;;;;;;;;1036408;28;4041;-52
2023/03/27 02:35:39;;;;;;;;;;;;;;;;;;1035507;28;3010;-53
2023/03/27 02:36:40;;;;;;;;;;;;;;;;;;1032382;28;4071;-51
2023/03/27 02:37:35;;;;;;;;;;;;;;;;;;1035489;28;3857;-49
2023/03/27 02:38:13;;;;;;;;;;;;;;;;;;1033060;28;4070;-50
2023/03/27 02:38:46;;;;;;;;;;;;;;;;;;1032783;28;4066;-50
2023/03/27 02:39:26;;;;;;;;;;;;;;;;;;1034355;28;3021;-53
2023/03/27 02:40:00;;;;;;;;;;;;;;;;;;1033834;28;4074;-51
2023/03/27 02:40:44;;;;;;;;;;;;;;;;;;1034334;28;2314;-49
2023/03/27 02:41:33;;;;;;;;;;;;;;;;;;1030386;28;3896;-50
2023/03/27 02:42:08;;;;;;;;;;;;;;;;;;1032407;28;3924;-53
2023/03/27 02:42:44;;;;;;;;;;;;;;;;;;1033812;28;4078;-52
2023/03/27 02:43:18;;;;;;;;;;;;;;;;;;1032669;28;3070;-52
2023/03/27 02:43:58;;;;;;;;;;;;;;;;;;1034947;28;3899;-50
2023/03/27 02:44:31;;;;;;;;;;;;;;;;;;1032316;28;2802;-50
2023/03/27 02:45:09;;;;;;;;;;;;;;;;;;1035571;28;3826;-50
2023/03/27 02:45:56;;;;;;;;;;;;;;;;;;1034411;28;3968;-49
2023/03/27 02:46:37;;;;;;;;;;;;;;;;;;1037224;28;2332;-50
2023/03/27 02:47:18;;;;;;;;;;;;;;;;;;1036233;28;4011;-52
2023/03/27 02:47:54;;;;;;;;;;;;;;;;;;1034488;28;4092;-50
2023/03/27 02:48:27;;;;;;;;;;;;;;;;;;1037207;28;3020;-51
2023/03/27 02:49:00;;;;;;;;;;;;;;;;;;1040476;28;3976;-49
2023/03/27 02:49:33;;;;;;;;;;;;;;;;;;1036053;28;2746;-54
2023/03/27 02:50:07;;;;;;;;;;;;;;;;;;1040652;28;3846;-50
2023/03/27 02:50:40;;;;;;;;;;;;;;;;;;1042962;28;4078;-49
2023/03/27 02:51:24;;;;;;;;;;;;;;;;;;1041883;28;2291;-50
2023/03/27 02:51:56;;;;;;;;;;;;;;;;;;1040035;28;4014;-52
2023/03/27 02:52:35;;;;;;;;;;;;;;;;;;1038746;28;2240;-50
2023/03/27 02:53:07;;;;;;;;;;;;;;;;;;1035193;28;3905;-51
2023/03/27 02:53:40;;;;;;;;;;;;;;;;;;1033857;28;4053;-52
2023/03/27 02:54:13;;;;;;;;;;;;;;;;;;1037378;28;2540;-51
2023/03/27 02:54:47;;;;;;;;;;;;;;;;;;1036850;28;4176;-52
2023/03/27 02:55:32;;;;;;;;;;;;;;;;;;1036026;28;2785;-51
2023/03/27 02:56:03;;;;;;;;;;;;;;;;;;1034711;28;3819;-54
2023/03/27 02:56:38;;;;;;;;;;;;;;;;;;1037623;28;4129;-51
2023/03/27 02:57:10;;;;;;;;;;;;;;;;;;1037782;28;2240;-50
2023/03/27 02:57:45;;;;;;;;;;;;;;;;;;1036223;28;3891;-51
2023/03/27 02:58:17;;;;;;;;;;;;;;;;;;1039561;28;1677;-51
2023/03/27 02:58:57;;;;;;;;;;;;;;;;;;1038829;28;4045;-51
2023/03/27 02:59:34;;;;;;;;;;;;;;;;;;1036595;28;2201;-51
2023/03/27 03:00:24;;;;;;;;;;;;;;;;;;1032244;28;4126;-53
2023/03/27 03:00:56;;;;;;;;;;;;;;;;;;1034782;28;4102;-51
2023/03/27 03:01:29;;;;;;;;;;;;;;;;;;1034651;28;2720;-49
2023/03/27 03:02:01;;;;;;;;;;;;;;;;;;1034079;28;4033;-51
2023/03/27 03:02:32;;;;;;;;;;;;;;;;;;1031177;28;4065;-49
2023/03/27 03:03:06;;;;;;;;;;;;;;;;;;1034006;28;2357;-52
2023/03/27 03:03:41;;;;;;;;;;;;;;;;;;1034339;28;5008;-52
2023/03/27 03:04:27;;;;;;;;;;;;;;;;;;1033183;28;2047;-52
2023/03/27 03:05:00;;;;;;;;;;;;;;;;;;1034517;28;3848;-49
2023/03/27 03:05:31;;;;;;;;;;;;;;;;;;1034893;28;2813;-51
2023/03/27 03:06:05;;;;;;;;;;;;;;;;;;1031771;28;3871;-50
2023/03/27 03:06:36;;;;;;;;;;;;;;;;;;1033315;28;4052;-51
2023/03/27 03:07:10;;;;;;;;;;;;;;;;;;1035145;28;1686;-49
2023/03/27 03:07:40;;;;;;;;;;;;;;;;;;1034189;28;3985;-55
2023/03/27 03:08:11;;;;;;;;;;;;;;;;;;1030684;28;2950;-51
2023/03/27 03:08:42;;;;;;;;;;;;;;;;;;1033368;28;4101;-51
2023/03/27 03:09:13;;;;;;;;;;;;;;;;;;1035062;28;1828;-48
2023/03/27 03:09:44;;;;;;;;;;;;;;;;;;1031823;28;4152;-52
2023/03/27 03:10:14;;;;;;;;;;;;;;;;;;1034259;28;1702;-48
2023/03/27 03:10:45;;;;;;;;;;;;;;;;;;1033885;28;4069;-49
2023/03/27 03:11:15;;;;;;;;;;;;;;;;;;1033178;28;2241;-50
2023/03/27 03:11:50;;;;;;;;;;;;;;;;;;1031941;28;3963;-49
2023/03/27 03:12:20;;;;;;;;;;;;;;;;;;1033274;28;2232;-53
2023/03/27 03:12:51;;;;;;;;;;;;;;;;;;1034071;28;4043;-51
2023/03/27 03:13:21;;;;;;;;;;;;;;;;;;1032691;28;2932;-51
2023/03/27 03:13:51;;;;;;;;;;;;;;;;;;1034582;28;4058;-50
2023/03/27 03:14:25;;;;;;;;;;;;;;;;;;1034001;28;2600;-53
2023/03/27 03:14:55;;;;;;;;;;;;;;;;;;1032629;28;3883;-51
2023/03/27 03:15:25;;;;;;;;;;;;;;;;;;1030097;28;2776;-50
2023/03/27 03:15:56;;;;;;;;;;;;;;;;;;1031007;28;4085;-49
2023/03/27 03:16:28;;;;;;;;;;;;;;;;;;1032301;28;2764;-53
2023/03/27 03:16:58;;;;;;;;;;;;;;;;;;1031758;28;3994;-52
2023/03/27 03:17:28;;;;;;;;;;;;;;;;;;1031891;28;2851;-49
2023/03/27 03:17:59;;;;;;;;;;;;;;;;;;1032553;28;3969;-52
2023/03/27 03:18:29;;;;;;;;;;;;;;;;;;1033835;28;2737;-52
2023/03/27 03:19:00;;;;;;;;;;;;;;;;;;1035194;28;3960;-52
2023/03/27 03:19:31;;;;;;;;;;;;;;;;;;1034735;28;1777;-52
2023/03/27 03:20:03;;;;;;;;;;;;;;;;;;1033854;28;3946;-53
2023/03/27 03:20:34;;;;;;;;;;;;;;;;;;1032669;28;4061;-48
2023/03/27 03:21:04;;;;;;;;;;;;;;;;;;1035796;28;1824;-51
2023/03/27 03:21:35;;;;;;;;;;;;;;;;;;1034214;28;4048;-50
2023/03/27 03:22:05;;;;;;;;;;;;;;;;;;1032552;28;2331;-50
2023/03/27 03:22:38;;;;;;;;;;;;;;;;;;1034132;28;3879;-52
2023/03/27 03:23:09;;;;;;;;;;;;;;;;;;1035587;28;1619;-52
2023/03/27 03:23:39;;;;;;;;;;;;;;;;;;1033980;28;3892;-51
2023/03/27 03:24:10;;;;;;;;;;;;;;;;;;1033592;28;2780;-51
2023/03/27 03:24:40;;;;;;;;;;;;;;;;;;1033472;28;4049;-50
2023/03/27 03:25:11;;;;;;;;;;;;;;;;;;1032699;28;2795;-49
2023/03/27 03:25:43;;;;;;;;;;;;;;;;;;1032985;28;4200;-53
2023/03/27 03:26:14;;;;;;;;;;;;;;;;;;1032958;28;2131;-51
2023/03/27 03:26:48;;;;;;;;;;;;;;;;;;1036083;28;4089;-51
2023/03/27 03:27:19;;;;;;;;;;;;;;;;;;1037280;28;2859;-50
2023/03/27 03:27:56;;;;;;;;;;;;;;;;;;1036830;28;3980;-49
2023/03/27 03:28:27;;;;;;;;;;;;;;;;;;1038233;28;1957;-49
2023/03/27 03:28:57;;;;;;;;;;;;;;;;;;1039428;28;3841;-54
2023/03/27 03:29:34;;;;;;;;;;;;;;;;;;1036872;28;2679;-51
2023/03/27 03:30:04;;;;;;;;;;;;;;;;;;1035919;28;3908;-52
2023/03/27 03:30:37;;;;;;;;;;;;;;;;;;1037840;28;4069;-54
2023/03/27 03:31:09;;;;;;;;;;;;;;;;;;1039525;28;1636;-50
2023/03/27 03:31:43;;;;;;;;;;;;;;;;;;1036940;28;4083;-51
2023/03/27 03:32:13;;;;;;;;;;;;;;;;;;1037661;28;1895;-50
2023/03/27 03:32:45;;;;;;;;;;;;;;;;;;1033079;28;4075;-52
2023/03/27 03:33:16;;;;;;;;;;;;;;;;;;1039185;28;3065;-50
2023/03/27 03:33:47;;;;;;;;;;;;;;;;;;1037309;28;4063;-50
2023/03/27 03:34:17;;;;;;;;;;;;;;;;;;1032705;28;1871;-52
2023/03/27 03:34:48;;;;;;;;;;;;;;;;;;1032151;28;4128;-50
2023/03/27 03:35:18;;;;;;;;;;;;;;;;;;1033862;28;2090;-52
2023/03/27 03:35:49;;;;;;;;;;;;;;;;;;1034006;28;4000;-53
2023/03/27 03:36:19;;;;;;;;;;;;;;;;;;1035095;28;1811;-52
2023/03/27 03:36:49;;;;;;;;;;;;;;;;;;1033443;28;3967;-53
2023/03/27 03:37:20;;;;;;;;;;;;;;;;;;1030162;28;3055;-52
2023/03/27 03:37:51;;;;;;;;;;;;;;;;;;1037617;28;4157;-52
2023/03/27 03:38:24;;;;;;;;;;;;;;;;;;1037507;28;3050;-51
2023/03/27 03:38:55;;;;;;;;;;;;;;;;;;1037132;28;4034;-51
2023/03/27 03:39:25;;;;;;;;;;;;;;;;;;1035475;28;2634;-51
2023/03/27 03:39:56;;;;;;;;;;;;;;;;;;1033775;28;4274;-52
2023/03/27 03:40:26;;;;;;;;;;;;;;;;;;1033954;28;1966;-54
2023/03/27 03:40:57;;;;;;;;;;;;;;;;;;1032788;28;3867;-51
2023/03/27 03:41:27;;;;;;;;;;;;;;;;;;1034370;28;2635;-50
2023/03/27 03:41:58;;;;;;;;;;;;;;;;;;1032965;28;3918;-51
2023/03/27 03:42:28;;;;;;;;;;;;;;;;;;1034040;28;2828;-52
2023/03/27 03:42:58;;;;;;;;;;;;;;;;;;1030872;28;3822;-48
2023/03/27 03:43:29;;;;;;;;;;;;;;;;;;1033599;28;2323;-50
2023/03/27 03:44:00;;;;;;;;;;;;;;;;;;1034435;28;3798;-51
2023/03/27 03:44:30;;;;;;;;;;;;;;;;;;1035015;28;1590;-49
2023/03/27 03:45:00;;;;;;;;;;;;;;;;;;1031146;28;3998;-49
2023/03/27 03:45:31;;;;;;;;;;;;;;;;;;1032832;28;2724;-49
2023/03/27 03:46:01;;;;;;;;;;;;;;;;;;1034189;28;3893;-52
2023/03/27 03:46:31;;;;;;;;;;;;;;;;;;1032570;28;2494;-52
2023/03/27 03:47:02;;;;;;;;;;;;;;;;;;1033053;28;3690;-50
2023/03/27 03:47:32;;;;;;;;;;;;;;;;;;1033444;28;4125;-52
2023/03/27 03:48:03;;;;;;;;;;;;;;;;;;1034831;28;2569;-53
2023/03/27 03:48:33;;;;;;;;;;;;;;;;;;1034087;28;3876;-51
2023/03/27 03:49:03;;;;;;;;;;;;;;;;;;1034230;28;2721;-50
2023/03/27 03:49:34;;;;;;;;;;;;;;;;;;1032141;28;3980;-50
2023/03/27 03:50:04;;;;;;;;;;;;;;;;;;1033975;28;2847;-50
2023/03/27 03:50:35;;;;;;;;;;;;;;;;;;1034485;28;3831;-54
2023/03/27 03:51:05;;;;;;;;;;;;;;;;;;1031723;28;1940;-52
2023/03/27 03:51:35;;;;;;;;;;;;;;;;;;1031543;28;3980;-49
2023/03/27 03:52:06;;;;;;;;;;;;;;;;;;1034655;28;1880;-50
2023/03/27 03:52:37;;;;;;;;;;;;;;;;;;1030980;28;3958;-50
2023/03/27 03:53:07;;;;;;;;;;;;;;;;;;1029949;28;3137;-52
2023/03/27 03:53:37;;;;;;;;;;;;;;;;;;1032696;28;3908;-49
2023/03/27 03:54:08;;;;;;;;;;;;;;;;;;1033454;28;1784;-51
2023/03/27 03:54:39;;;;;;;;;;;;;;;;;;1033852;28;3832;-50
2023/03/27 03:55:10;;;;;;;;;;;;;;;;;;1034253;28;2923;-50
2023/03/27 03:55:41;;;;;;;;;;;;;;;;;;1033477;28;4226;-48
2023/03/27 03:56:11;;;;;;;;;;;;;;;;;;1035020;28;1717;-49
2023/03/27 03:56:42;;;;;;;;;;;;;;;;;;1033155;28;3878;-52